createdAt,value
2022-09-01T00:00:02.552Z,26.2
2022-09-01T00:05:01.918Z,26.2
2022-09-01T00:10:02.023Z,26.2
2022-09-01T00:15:02.251Z,26.2
2022-09-01T00:20:02.331Z,26.2
2022-09-01T00:25:02.464Z,26.2
2022-09-01T00:30:01.604Z,26.2
2022-09-01T00:35:01.781Z,26.2
2022-09-01T00:40:01.927Z,26.2
2022-09-01T00:45:02.100Z,26.2
2022-09-01T00:50:01.754Z,26.2
2022-09-01T00:55:02.343Z,26.2
2022-09-01T01:00:01.996Z,26.2
2022-09-01T01:05:02.058Z,26.2
2022-09-01T01:10:02.221Z,26.2
2022-09-01T01:15:02.416Z,26.2
2022-09-01T01:20:02.486Z,26.2
2022-09-01T01:25:01.614Z,26.2
2022-09-01T01:30:01.791Z,26.2
2022-09-01T01:35:02.678Z,26.2
2022-09-01T01:40:02.226Z,26.2
2022-09-01T01:45:02.273Z,26.2
2022-09-01T01:50:02.561Z,26.2
2022-09-01T01:55:05.179Z,26.2
2022-09-01T02:00:01.669Z,26.2
2022-09-01T02:05:02.573Z,26.2
2022-09-01T02:10:01.992Z,26.2
2022-09-01T02:15:02.088Z,26.2
2022-09-01T02:20:02.991Z,26.2
2022-09-01T02:25:02.347Z,26.2
2022-09-01T02:30:02.680Z,26.2
2022-09-01T02:35:02.504Z,26.2
2022-09-01T02:40:01.896Z,26.2
2022-09-01T02:45:02.601Z,26.2
2022-09-01T02:50:02.932Z,26.2
2022-09-01T02:55:02.790Z,26.2
2022-09-01T03:00:02.637Z,26.2
2022-09-01T03:05:03.966Z,26.2
2022-09-01T03:10:03.425Z,26.2
2022-09-01T03:15:02.648Z,26.2
2022-09-01T03:20:03.688Z,26.2
2022-09-01T03:25:01.975Z,26.2
2022-09-01T03:30:02.091Z,26.2
2022-09-01T03:35:02.690Z,26.2
2022-09-01T03:40:02.922Z,26.2
2022-09-01T03:45:02.344Z,26.2
2022-09-01T03:50:02.394Z,26.2
2022-09-01T03:55:02.588Z,26.2
2022-09-01T04:00:01.683Z,26.2
2022-09-01T04:05:05.246Z,26.2
2022-09-01T04:10:03.091Z,26.2
2022-09-01T04:15:02.407Z,26.2
2022-09-01T04:20:02.415Z,26.2
2022-09-01T04:25:02.546Z,26.2
2022-09-01T04:30:02.596Z,26.2
2022-09-01T04:35:02.511Z,26.2
2022-09-01T04:40:02.706Z,26.2
2022-09-01T04:45:10.113Z,26.2
2022-09-01T04:50:02.217Z,26.2
2022-09-01T04:55:02.517Z,26.2
2022-09-01T05:00:01.669Z,26.2
2022-09-01T05:05:02.643Z,26.2
2022-09-01T05:10:03.267Z,26.2
2022-09-01T05:15:03.380Z,26.2
2022-09-01T05:20:01.645Z,26.2
2022-09-01T05:25:01.812Z,26.2
2022-09-01T05:30:02.055Z,26.2
2022-09-01T05:35:02.895Z,26.2
2022-09-01T05:40:03.058Z,26.2
2022-09-01T05:45:03.352Z,26.2
2022-09-01T05:50:02.676Z,26.2
2022-09-01T05:55:01.746Z,26.2
2022-09-01T06:00:02.022Z,26.2
2022-09-01T06:05:02.892Z,26.2
2022-09-01T06:10:03.183Z,14.5
2022-09-01T06:15:03.353Z,14.7
2022-09-01T06:20:02.626Z,15.2
2022-09-01T06:25:02.917Z,15.5
2022-09-01T06:30:02.909Z,15.8
2022-09-01T06:35:02.847Z,16.3
2022-09-01T06:40:03.145Z,16.5
2022-09-01T06:45:03.848Z,16.8
2022-09-01T06:50:02.599Z,17.3
2022-09-01T06:55:05.784Z,17.6
2022-09-01T07:00:02.153Z,17.9
2022-09-01T07:05:03.303Z,18.4
2022-09-01T07:10:17.905Z,18.7
2022-09-01T07:25:17.388Z,19.8
2022-09-01T07:30:02.340Z,20.3
2022-09-01T07:35:03.231Z,20.2
2022-09-01T07:50:24.444Z,19.6
2022-09-01T07:55:02.090Z,19.6
2022-09-01T08:00:02.328Z,19.6
2022-09-01T08:05:03.244Z,19.6
2022-09-01T08:10:03.375Z,19.6
2022-09-01T08:20:03.180Z,19.6
2022-09-01T08:25:01.695Z,19.6
2022-09-01T08:30:02.057Z,19.6
2022-09-01T08:35:03.008Z,19.6
2022-09-01T08:40:04.007Z,19.6
2022-09-01T08:45:03.385Z,19.6
2022-09-01T08:50:01.755Z,19.6
2022-09-01T08:55:01.886Z,19.6
2022-09-01T09:00:02.317Z,19.6
2022-09-01T09:05:15.383Z,19.6
2022-09-01T09:10:03.113Z,19.6
2022-09-01T09:15:03.611Z,19.6
2022-09-01T09:20:01.667Z,19.6
2022-09-01T09:25:01.879Z,19.6
2022-09-01T09:35:02.904Z,19.6
2022-09-01T09:40:03.265Z,19.6
2022-09-01T09:45:04.011Z,19.6
2022-09-01T09:50:05.237Z,19.6
2022-09-01T09:55:01.910Z,19.6
2022-09-01T10:00:01.970Z,19.6
2022-09-01T10:05:02.909Z,19.6
2022-09-01T10:10:03.133Z,19.6
2022-09-01T10:15:04.616Z,19.6
2022-09-01T10:20:01.714Z,19.6
2022-09-01T10:25:01.838Z,19.6
2022-09-01T10:35:02.921Z,19.6
2022-09-01T10:40:03.104Z,19.6
2022-09-01T10:45:03.339Z,19.6
2022-09-01T10:50:07.582Z,19.6
2022-09-01T10:55:01.694Z,19.6
2022-09-01T11:00:02.405Z,19.6
2022-09-01T11:05:02.985Z,19.6
2022-09-01T11:10:10.970Z,19.6
2022-09-01T11:15:03.188Z,19.6
2022-09-01T11:20:02.463Z,19.6
2022-09-01T11:25:12.390Z,19.6
2022-09-01T11:30:01.731Z,19.6
2022-09-01T11:35:02.743Z,19.6
2022-09-01T11:40:03.000Z,19.6
2022-09-01T11:45:03.190Z,19.6
2022-09-01T11:50:01.916Z,19.6
2022-09-01T11:55:01.996Z,19.6
2022-09-01T12:00:02.756Z,19.6
2022-09-01T12:05:03.387Z,19.6
2022-09-01T12:10:02.465Z,19.6
2022-09-01T12:15:05.951Z,19.6
2022-09-01T12:20:02.054Z,19.6
2022-09-01T12:25:02.285Z,19.6
2022-09-01T12:30:02.496Z,19.6
2022-09-01T12:35:09.538Z,19.6
2022-09-01T12:40:02.485Z,19.6
2022-09-01T12:45:02.721Z,19.6
2022-09-01T12:50:03.363Z,19.6
2022-09-01T12:55:02.076Z,19.6
2022-09-01T13:00:03.350Z,19.6
2022-09-01T13:05:03.093Z,19.6
2022-09-01T13:10:03.263Z,19.6
2022-09-01T13:15:02.641Z,19.6
2022-09-01T13:20:01.835Z,19.6
2022-09-01T13:25:01.944Z,19.6
2022-09-01T13:30:02.246Z,19.6
2022-09-01T13:35:03.072Z,19.6
2022-09-01T13:40:03.247Z,19.6
2022-09-01T13:45:02.635Z,19.6
2022-09-01T13:50:11.274Z,19.6
2022-09-01T13:55:01.926Z,19.6
2022-09-01T14:00:02.154Z,19.6
2022-09-01T14:05:03.266Z,19.6
2022-09-01T14:10:03.372Z,19.6
2022-09-01T14:15:19.829Z,19.6
2022-09-01T14:20:01.945Z,19.6
2022-09-01T14:25:02.114Z,19.6
2022-09-01T14:30:02.317Z,19.6
2022-09-01T14:35:03.239Z,19.6
2022-09-01T14:40:02.756Z,19.6
2022-09-01T14:45:05.065Z,19.6
2022-09-01T14:50:02.070Z,19.6
2022-09-01T14:55:02.488Z,19.6
2022-09-01T15:00:02.364Z,19.6
2022-09-01T15:05:03.236Z,19.6
2022-09-01T15:10:03.413Z,19.6
2022-09-01T15:15:02.867Z,19.6
2022-09-01T15:20:01.960Z,19.6
2022-09-01T15:25:02.035Z,19.6
2022-09-01T15:30:03.067Z,19.6
2022-09-01T15:35:03.209Z,19.6
2022-09-01T15:40:03.309Z,19.6
2022-09-01T15:45:02.596Z,19.6
2022-09-01T15:50:01.981Z,19.6
2022-09-01T15:55:02.029Z,19.6
2022-09-01T16:00:02.220Z,19.6
2022-09-01T16:05:03.207Z,19.6
2022-09-01T16:10:03.309Z,19.6
2022-09-01T16:15:02.608Z,19.6
2022-09-01T16:20:01.926Z,19.6
2022-09-01T16:25:01.979Z,19.6
2022-09-01T16:30:02.190Z,19.6
2022-09-01T16:35:03.067Z,19.6
2022-09-01T16:40:04.841Z,19.6
2022-09-01T16:45:03.483Z,19.6
2022-09-01T16:50:02.473Z,19.6
2022-09-01T16:55:01.865Z,19.6
2022-09-01T17:00:02.080Z,19.6
2022-09-01T17:05:02.981Z,19.6
2022-09-01T17:10:03.149Z,19.6
2022-09-01T17:15:03.399Z,19.6
2022-09-01T17:20:01.741Z,19.6
2022-09-01T17:30:02.895Z,19.6
2022-09-01T17:35:03.592Z,19.6
2022-09-01T17:40:02.427Z,19.6
2022-09-01T17:45:02.715Z,19.6
2022-09-01T17:50:01.869Z,19.6
2022-09-01T17:55:02.017Z,19.6
2022-09-01T18:00:02.606Z,19.6
2022-09-01T18:05:03.309Z,19.6
2022-09-01T18:10:02.531Z,19.6
2022-09-01T18:15:03.086Z,19.6
2022-09-01T18:20:02.224Z,19.6
2022-09-01T18:25:02.716Z,19.6
2022-09-01T18:30:02.139Z,19.6
2022-09-01T18:35:02.656Z,19.6
2022-09-01T18:40:03.137Z,19.6
2022-09-01T18:45:03.171Z,19.6
2022-09-01T18:50:02.390Z,19.6
2022-09-01T18:55:02.533Z,19.6
2022-09-01T19:00:02.891Z,19.6
2022-09-01T19:05:02.486Z,19.6
2022-09-01T19:10:02.669Z,19.6
2022-09-01T19:15:03.900Z,19.6
2022-09-01T19:20:02.687Z,19.6
2022-09-01T19:25:02.740Z,19.6
2022-09-01T19:30:01.841Z,19.6
2022-09-01T19:35:03.002Z,19.6
2022-09-01T19:40:03.084Z,19.6
2022-09-01T19:45:05.474Z,19.6
2022-09-01T19:50:02.572Z,19.6
2022-09-01T19:55:01.700Z,19.6
2022-09-01T20:00:01.850Z,19.6
2022-09-01T20:05:02.882Z,19.6
2022-09-01T20:10:03.045Z,19.6
2022-09-01T20:15:03.258Z,19.6
2022-09-01T20:20:02.588Z,19.6
2022-09-01T20:25:01.780Z,19.6
2022-09-01T20:30:01.970Z,19.6
2022-09-01T20:35:03.063Z,19.6
2022-09-01T20:40:03.002Z,19.6
2022-09-01T20:45:03.216Z,19.6
2022-09-01T20:50:02.524Z,19.6
2022-09-01T20:55:01.746Z,19.6
2022-09-01T21:00:03.124Z,19.6
2022-09-01T21:05:03.381Z,19.6
2022-09-01T21:10:02.819Z,19.6
2022-09-01T21:15:02.969Z,19.6
2022-09-01T21:20:02.317Z,19.6
2022-09-01T21:25:02.512Z,19.6
2022-09-01T21:30:01.755Z,19.6
2022-09-01T21:35:02.956Z,19.6
2022-09-01T21:40:03.064Z,19.6
2022-09-01T21:45:02.762Z,19.6
2022-09-01T21:50:01.756Z,19.6
2022-09-01T21:55:01.957Z,19.6
2022-09-01T22:00:02.474Z,19.6
2022-09-01T22:05:03.137Z,19.6
2022-09-01T22:10:03.266Z,19.6
2022-09-01T22:15:01.815Z,19.6
2022-09-01T22:20:02.803Z,19.6
2022-09-01T22:25:02.174Z,19.6
2022-09-01T22:30:01.862Z,19.6
2022-09-01T22:35:02.836Z,19.6
2022-09-01T22:40:02.443Z,19.6
2022-09-01T22:45:01.705Z,19.6
2022-09-01T22:50:03.145Z,19.6
2022-09-01T22:55:03.071Z,19.6
2022-09-01T23:00:03.271Z,19.6
2022-09-01T23:05:02.339Z,19.6
2022-09-01T23:10:02.270Z,19.6
2022-09-01T23:15:02.082Z,19.6
2022-09-01T23:20:02.404Z,19.6
2022-09-01T23:25:02.283Z,19.6
2022-09-01T23:30:02.435Z,19.6
2022-09-01T23:35:02.584Z,19.6
2022-09-01T23:40:01.692Z,19.6
2022-09-01T23:45:03.183Z,19.6
2022-09-01T23:50:02.441Z,19.6
2022-09-01T23:55:02.588Z,19.6
